Terminal Aerodrome Forecast
Issued by NWS

Home | Current Version | Previous Version | Text Only | Print | Product List | Glossary On
Versions: 1 2 3 4 5 6 7 8 9 10 11 12 13 14
000
FTUS43 KIND 050527
TAFLAF
TAF
KLAF 050527Z 0506/0606 VRB03KT P6SM SCT120
      TEMPO 0509/0513 4SM BR
     FM051300 25003KT P6SM SCT120
     FM051500 24004KT P6SM SCT030
     FM051800 25005KT P6SM SCT040
     FM060100 00000KT P6SM SCT120
      AMD LTD TO CLD VIS AND WIND TIL 051300=

USA.gov is the U.S. government's official web portal to all federal, state and local government web resources and services.